Time;durP1;ratioP1;P1;durP2;ratioP2;P2;SDS_P1;SDS_P2;PMS_P1;PMS_P2;Temp;Humidity;BMP_temperature;BMP_pressure;BME280_temperature;BME280_humidity;BME280_pressure;Samples;Min_cycle;Max_cycle;Signal;HPM_P1;HPM_P2
2024/02/25 00:00:30;;;;;;;2.67;0.88;;;;;;;1.24;55.84;100198.28;4985243;28;20033;-71
2024/02/25 00:02:57;;;;;;;2.17;1.10;;;;;;;1.15;56.06;100188.97;4984889;28;20037;-71
2024/02/25 00:05:23;;;;;;;5.22;1.13;;;;;;;1.07;56.34;100191.59;4993928;28;20515;-73
2024/02/25 00:07:49;;;;;;;4.35;1.75;;;;;;;1.18;55.93;100203.50;4997681;28;20068;-72
2024/02/25 00:10:14;;;;;;;3.60;1.42;;;;;;;1.19;55.90;100203.47;4975273;28;20036;-71
2024/02/25 00:12:40;;;;;;;7.43;1.50;;;;;;;1.14;55.96;100196.69;4998369;28;20431;-70
2024/02/25 00:15:05;;;;;;;2.20;1.67;;;;;;;1.09;56.08;100200.16;4980906;28;20145;-75
2024/02/25 00:17:31;;;;;;;3.70;1.80;;;;;;;1.12;56.11;100199.28;4980329;28;20037;-72
2024/02/25 00:19:56;;;;;;;2.85;2.00;;;;;;;0.98;56.57;100191.72;4997441;28;20036;-73
2024/02/25 00:22:21;;;;;;;4.32;1.77;;;;;;;1.09;55.95;100191.59;4995741;28;20048;-71
2024/02/25 00:24:47;;;;;;;4.03;2.28;;;;;;;1.10;56.28;100191.59;4998496;28;20046;-72
2024/02/25 00:27:12;;;;;;;2.42;1.88;;;;;;;1.02;56.54;100190.81;4988092;28;20756;-73
2024/02/25 00:29:38;;;;;;;4.10;2.47;;;;;;;0.93;57.17;100193.50;4978675;28;20041;-69
2024/02/25 00:32:04;;;;;;;3.30;2.05;;;;;;;1.08;56.63;100201.03;4999365;28;20088;-69
2024/02/25 00:34:32;;;;;;;4.97;2.88;;;;;;;1.03;56.54;100200.22;4975831;28;20037;-69
2024/02/25 00:36:58;;;;;;;3.78;2.75;;;;;;;1.10;56.66;100196.72;4995370;28;20538;-68
2024/02/25 00:39:23;;;;;;;4.93;2.50;;;;;;;1.08;56.30;100195.91;4993061;28;20118;-69
2024/02/25 00:41:51;;;;;;;4.47;2.65;;;;;;;0.94;56.98;100190.03;4997237;28;20032;-76
2024/02/25 00:44:17;;;;;;;5.22;2.45;;;;;;;0.94;56.93;100197.75;4993699;28;20108;-72
2024/02/25 00:46:42;;;;;;;3.33;2.55;;;;;;;0.71;57.50;100197.16;4995577;28;20128;-73
2024/02/25 00:49:08;;;;;;;6.30;2.70;;;;;;;0.80;57.18;100199.63;4995261;28;20053;-73
2024/02/25 00:51:34;;;;;;;9.63;3.40;;;;;;;0.96;57.21;100201.16;4981278;28;20084;-73
2024/02/25 00:53:59;;;;;;;4.50;3.35;;;;;;;0.95;56.99;100193.47;4995837;28;20127;-74
2024/02/25 00:56:25;;;;;;;4.55;3.40;;;;;;;1.13;56.89;100197.53;4978417;28;20083;-74
2024/02/25 00:58:50;;;;;;;7.13;3.50;;;;;;;1.13;56.54;100192.41;4978354;28;20105;-75
2024/02/25 01:01:15;;;;;;;4.32;2.83;;;;;;;1.20;56.99;100196.63;4976718;28;20132;-75
2024/02/25 01:03:44;;;;;;;7.88;3.67;;;;;;;1.20;56.78;100183.75;4995058;28;20630;-75
2024/02/25 01:06:10;;;;;;;6.95;3.63;;;;;;;1.40;56.17;100180.94;4978950;28;20124;-73
2024/02/25 01:08:38;;;;;;;7.38;3.72;;;;;;;1.39;56.41;100179.22;4997702;28;20791;-72
2024/02/25 01:11:10;;;;;;;12.00;3.75;;;;;;;1.26;56.41;100176.81;4996183;28;20037;-72
2024/02/25 01:13:36;;;;;;;5.57;3.40;;;;;;;1.49;56.15;100176.53;4999236;28;20075;-71
2024/02/25 01:16:02;;;;;;;8.48;3.25;;;;;;;1.22;57.13;100179.44;4976305;28;20744;-73
2024/02/25 01:18:32;;;;;;;6.03;3.33;;;;;;;1.39;56.52;100174.06;4942182;28;20064;-73
2024/02/25 01:20:58;;;;;;;5.20;3.35;;;;;;;1.31;56.39;100174.16;4994090;28;20188;-71
2024/02/25 01:23:24;;;;;;;9.55;4.03;;;;;;;1.43;55.81;100174.03;4988372;28;20049;-71
2024/02/25 01:25:49;;;;;;;6.57;3.25;;;;;;;1.39;56.21;100169.75;4962442;28;20040;-72
2024/02/25 01:28:15;;;;;;;6.20;3.13;;;;;;;1.32;56.17;100166.41;4972789;28;20124;-72
2024/02/25 01:30:40;;;;;;;4.38;2.92;;;;;;;1.30;56.06;100169.88;4984407;28;20033;-72
2024/02/25 01:33:06;;;;;;;6.25;2.67;;;;;;;1.29;56.29;100165.63;4976469;28;20051;-70
2024/02/25 01:35:31;;;;;;;6.05;3.58;;;;;;;1.31;56.36;100169.03;4975413;28;20380;-70
2024/02/25 01:37:57;;;;;;;5.18;3.53;;;;;;;1.27;56.43;100164.78;4976693;28;20574;-72
2024/02/25 01:40:22;;;;;;;3.92;3.50;;;;;;;1.16;56.64;100164.06;4973227;28;20053;-71
2024/02/25 01:43:25;;;;;;;7.72;3.22;;;;;;;1.22;56.45;100164.00;4979030;28;20040;-71
2024/02/25 01:45:50;;;;;;;5.78;3.42;;;;;;;1.23;56.16;100166.53;4979135;28;20531;-72
2024/02/25 01:48:22;;;;;;;7.60;3.97;;;;;;;1.11;56.61;100167.53;4987450;28;20041;-72
2024/02/25 01:50:49;;;;;;;7.63;3.30;;;;;;;1.02;56.94;100170.22;4995552;28;20143;-69
2024/02/25 01:53:16;;;;;;;3.92;2.55;;;;;;;1.13;56.77;100171.81;4990668;28;20041;-72
2024/02/25 01:55:45;;;;;;;6.90;3.38;;;;;;;1.19;56.45;100167.44;4982595;28;20088;-72
2024/02/25 01:58:11;;;;;;;5.75;3.30;;;;;;;0.99;56.90;100167.69;4992490;28;20053;-69
2024/02/25 02:00:37;;;;;;;3.50;2.75;;;;;;;1.17;56.54;100166.63;4977146;28;20411;-71
2024/02/25 02:03:03;;;;;;;5.53;3.22;;;;;;;1.32;56.00;100165.56;4977404;28;20045;-70
2024/02/25 02:05:29;;;;;;;5.47;2.72;;;;;;;1.28;56.28;100161.31;4946945;28;20766;-70
2024/02/25 02:07:55;;;;;;;5.53;2.75;;;;;;;1.22;56.50;100158.84;4933233;28;20056;-69
2024/02/25 02:10:20;;;;;;;4.00;2.42;;;;;;;1.26;56.40;100155.34;4907785;28;20481;-71
2024/02/25 02:12:47;;;;;;;3.08;2.50;;;;;;;1.18;56.41;100157.19;4896453;28;20021;-70
2024/02/25 02:15:14;;;;;;;3.45;2.58;;;;;;;1.26;56.46;100156.22;4909601;28;20897;-70
2024/02/25 02:17:41;;;;;;;4.85;2.05;;;;;;;1.25;55.91;100151.91;4935970;28;20055;-71
2024/02/25 02:20:16;;;;;;;4.90;2.30;;;;;;;1.28;55.50;100148.44;4996344;28;20513;-71
2024/02/25 02:22:42;;;;;;;5.80;2.42;;;;;;;1.09;56.19;100138.38;4996685;28;20132;-71
2024/02/25 02:25:08;;;;;;;3.03;1.92;;;;;;;1.22;55.86;100138.25;4978151;28;20033;-71
2024/02/25 02:27:37;;;;;;;6.15;1.98;;;;;;;1.11;56.06;100141.81;4987911;28;20283;-70
2024/02/25 02:30:04;;;;;;;4.63;2.08;;;;;;;1.06;55.81;100141.00;4993953;28;20379;-71
2024/02/25 02:32:30;;;;;;;2.38;1.73;;;;;;;1.03;55.82;100132.47;4988390;28;20044;-71
2024/02/25 02:34:55;;;;;;;5.25;1.45;;;;;;;0.83;56.06;100141.25;4943891;28;20037;-75
2024/02/25 02:37:21;;;;;;;2.28;1.20;;;;;;;1.03;55.94;100130.75;4974057;28;20032;-74
2024/02/25 02:39:47;;;;;;;3.28;1.65;;;;;;;1.14;55.31;100140.06;4982264;28;20067;-74
2024/02/25 02:42:12;;;;;;;4.28;1.60;;;;;;;1.12;55.52;100137.50;4977107;28;20037;-74
2024/02/25 02:44:38;;;;;;;3.47;1.88;;;;;;;1.21;55.37;100131.38;4991051;28;20037;-73
2024/02/25 02:47:04;;;;;;;1.80;1.40;;;;;;;1.25;55.09;100122.75;4961205;28;20033;-71
2024/02/25 02:49:30;;;;;;;4.53;1.35;;;;;;;1.24;55.22;100128.78;4978595;28;20510;-73
2024/02/25 02:51:59;;;;;;;4.60;1.40;;;;;;;1.26;55.19;100127.88;4994088;28;20120;-73
2024/02/25 02:54:25;;;;;;;3.45;1.45;;;;;;;1.38;55.09;100118.28;4975776;28;20054;-76
2024/02/25 02:56:50;;;;;;;2.45;1.70;;;;;;;1.20;55.49;100125.38;4990211;28;20045;-76
2024/02/25 02:59:16;;;;;;;2.97;1.27;;;;;;;1.15;55.36;100126.31;4972460;28;20053;-74
2024/02/25 03:01:41;;;;;;;3.65;1.27;;;;;;;1.30;55.07;100115.81;4972779;28;20096;-74
2024/02/25 03:04:08;;;;;;;4.32;1.25;;;;;;;1.29;55.15;100124.41;4993825;28;20632;-75
2024/02/25 03:06:33;;;;;;;4.53;1.92;;;;;;;1.31;55.10;100114.94;4993574;28;20033;-74
2024/02/25 03:08:59;;;;;;;4.70;1.50;;;;;;;1.25;55.62;100113.28;4976456;28;20061;-75
2024/02/25 03:11:24;;;;;;;2.53;1.17;;;;;;;1.31;55.38;100108.06;4974059;28;20458;-68
2024/02/25 03:13:50;;;;;;;3.15;1.50;;;;;;;1.43;54.76;100111.38;4995411;28;20060;-68
2024/02/25 03:16:16;;;;;;;2.45;1.42;;;;;;;1.42;54.90;100107.13;4994257;28;20041;-68
2024/02/25 03:18:42;;;;;;;1.92;1.15;;;;;;;1.33;54.90;100102.91;4968744;28;20594;-68
2024/02/25 03:21:07;;;;;;;2.60;0.90;;;;;;;1.32;55.21;100103.78;4994935;28;20111;-68
2024/02/25 03:23:33;;;;;;;2.97;1.48;;;;;;;1.20;55.39;100098.81;4988726;28;20580;-68
2024/02/25 03:25:59;;;;;;;2.38;1.77;;;;;;;1.39;55.01;100105.38;4995401;28;20146;-68
2024/02/25 03:28:24;;;;;;;2.67;1.42;;;;;;;1.13;55.77;100098.03;4987511;28;20389;-68
2024/02/25 03:30:50;;;;;;;3.17;1.77;;;;;;;1.43;55.12;100096.78;4994181;28;20047;-69
2024/02/25 03:33:16;;;;;;;3.78;1.40;;;;;;;1.37;55.22;100091.66;4994158;28;20507;-68
2024/02/25 03:35:41;;;;;;;2.22;1.33;;;;;;;1.30;55.37;100092.63;4933811;28;20396;-68
2024/02/25 03:38:07;;;;;;;1.95;1.50;;;;;;;1.32;55.15;100093.47;4939074;28;20057;-68
2024/02/25 03:40:32;;;;;;;3.53;1.58;;;;;;;1.35;55.17;100090.88;4946385;28;20239;-68
2024/02/25 03:42:58;;;;;;;2.17;1.02;;;;;;;1.43;55.27;100091.63;4942993;28;20549;-68
2024/02/25 03:45:23;;;;;;;1.52;0.90;;;;;;;1.23;55.46;100093.59;4937245;28;20561;-68
2024/02/25 03:47:49;;;;;;;3.72;0.90;;;;;;;1.39;55.41;100089.09;4894234;28;20087;-69
2024/02/25 03:50:14;;;;;;;2.38;1.08;;;;;;;1.42;54.98;100089.94;4938469;28;20038;-69
2024/02/25 03:52:40;;;;;;;2.97;1.08;;;;;;;1.50;54.82;100090.66;4933176;28;20230;-68
2024/02/25 03:55:07;;;;;;;3.13;1.40;;;;;;;1.51;55.13;100089.78;4932147;28;20075;-69
2024/02/25 03:57:33;;;;;;;2.03;0.80;;;;;;;1.58;54.70;100089.72;4930200;28;20587;-69
2024/02/25 03:59:58;;;;;;;1.27;0.80;;;;;;;1.41;55.30;100093.38;4970005;28;20036;-70
2024/02/25 04:02:24;;;;;;;2.00;1.10;;;;;;;1.54;55.02;100090.63;4992130;28;20121;-68
2024/02/25 04:04:49;;;;;;;2.58;0.93;;;;;;;1.45;55.27;100087.31;4997512;28;20043;-70
2024/02/25 04:07:15;;;;;;;2.95;0.85;;;;;;;1.59;54.98;100081.09;4996138;28;20071;-68
2024/02/25 04:09:41;;;;;;;1.95;0.98;;;;;;;1.57;54.87;100083.69;4992957;28;20044;-68
2024/02/25 04:12:07;;;;;;;1.50;0.60;;;;;;;1.59;55.02;100084.50;4995807;28;20414;-70
2024/02/25 04:14:33;;;;;;;2.83;1.48;;;;;;;1.59;55.30;100091.41;4973188;28;20505;-70
2024/02/25 04:17:00;;;;;;;1.50;0.80;;;;;;;1.61;54.88;100087.06;5001517;28;20412;-70
2024/02/25 04:19:25;;;;;;;1.70;0.70;;;;;;;1.61;55.32;100079.34;4972194;28;20410;-70
2024/02/25 04:21:51;;;;;;;2.50;0.70;;;;;;;1.59;55.18;100076.78;5000570;28;20037;-72
2024/02/25 04:24:16;;;;;;;7.07;0.70;;;;;;;1.48;55.36;100082.13;4994511;28;20410;-72
2024/02/25 04:26:47;;;;;;;1.88;0.52;;;;;;;1.66;55.13;100080.13;4993675;28;20044;-72
2024/02/25 04:29:13;;;;;;;2.47;0.80;;;;;;;1.71;54.85;100080.91;4994126;28;20105;-71
2024/02/25 04:31:46;;;;;;;1.80;0.80;;;;;;;1.66;54.71;100077.53;4992909;28;20987;-72
2024/02/25 04:34:12;;;;;;;1.58;0.55;;;;;;;1.67;55.14;100074.09;4976722;28;20160;-71
2024/02/25 04:36:38;;;;;;;2.85;0.93;;;;;;;1.65;54.89;100081.00;4990229;28;20037;-72
2024/02/25 04:39:05;;;;;;;2.60;0.70;;;;;;;1.68;54.72;100075.78;4997565;28;20049;-71
2024/02/25 04:41:30;;;;;;;2.40;0.55;;;;;;;1.58;54.82;100076.81;4975219;28;20033;-72
2024/02/25 04:43:56;;;;;;;2.97;0.57;;;;;;;1.50;55.34;100087.22;4995564;28;20046;-72
2024/02/25 04:46:21;;;;;;;4.20;0.68;;;;;;;1.67;54.96;100074.09;4996323;28;20427;-72
2024/02/25 04:48:49;;;;;;;2.33;0.68;;;;;;;1.66;54.70;100078.41;4989048;28;21047;-68
2024/02/25 04:51:15;;;;;;;1.52;0.60;;;;;;;1.70;54.65;100084.34;4995592;28;20056;-68
2024/02/25 04:53:40;;;;;;;1.00;0.52;;;;;;;1.10;56.43;100075.78;4992076;28;20124;-67
2024/02/25 04:56:06;;;;;;;3.22;0.47;;;;;;;1.36;56.16;100076.25;4997905;28;20497;-68
2024/02/25 04:58:31;;;;;;;5.05;0.73;;;;;;;1.44;56.02;100071.88;4986945;28;20049;-70
2024/02/25 05:00:57;;;;;;;1.00;0.47;;;;;;;1.61;55.51;100071.63;4995869;28;20025;-71
2024/02/25 05:03:23;;;;;;;2.03;0.57;;;;;;;1.58;56.13;100066.53;4995442;28;20471;-69
2024/02/25 05:05:49;;;;;;;1.15;0.50;;;;;;;1.45;56.36;100068.44;4991863;28;20369;-68
2024/02/25 05:08:15;;;;;;;2.55;0.43;;;;;;;1.66;56.33;100067.22;4977738;28;20550;-68
2024/02/25 05:10:40;;;;;;;2.15;0.60;;;;;;;1.62;56.53;100065.59;4989319;28;20041;-68
2024/02/25 05:13:06;;;;;;;0.88;0.20;;;;;;;1.63;56.62;100072.44;4980168;28;20038;-68
2024/02/25 05:15:34;;;;;;;1.95;0.57;;;;;;;1.35;57.57;100075.41;4986572;28;20044;-68
2024/02/25 05:18:01;;;;;;;1.52;0.40;;;;;;;1.64;56.86;100067.28;4996877;28;20044;-68
2024/02/25 05:20:26;;;;;;;0.68;0.40;;;;;;;1.56;57.46;100066.53;4960075;28;20048;-68
2024/02/25 05:22:52;;;;;;;2.35;0.47;;;;;;;1.56;57.38;100063.13;4957476;28;20400;-68
2024/02/25 05:25:18;;;;;;;0.90;0.25;;;;;;;1.49;57.31;100070.94;4996671;28;20040;-68
2024/02/25 05:27:43;;;;;;;1.15;0.40;;;;;;;1.41;58.04;100069.34;4971390;28;20399;-69
2024/02/25 05:30:09;;;;;;;1.05;0.40;;;;;;;1.02;59.28;100071.59;4998383;28;20554;-69
2024/02/25 05:32:35;;;;;;;1.15;0.50;;;;;;;1.07;59.05;100073.22;4985927;28;20059;-70
2024/02/25 05:35:03;;;;;;;2.67;0.55;;;;;;;1.01;59.59;100073.28;4962019;28;20148;-70
2024/02/25 05:37:28;;;;;;;1.80;0.40;;;;;;;1.21;58.85;100067.03;4994390;28;20029;-71
2024/02/25 05:39:54;;;;;;;3.35;0.50;;;;;;;1.25;58.24;100066.97;4956627;28;20566;-74
2024/02/25 05:42:19;;;;;;;2.47;0.43;;;;;;;1.28;58.87;100071.22;4976418;28;20030;-70
2024/02/25 05:44:45;;;;;;;1.83;0.43;;;;;;;0.95;59.21;100060.53;4991049;28;20049;-73
2024/02/25 05:47:10;;;;;;;0.73;0.32;;;;;;;1.08;59.16;100058.63;4997006;28;20093;-73
2024/02/25 05:49:38;;;;;;;0.90;0.47;;;;;;;1.02;59.52;100064.72;4987753;28;20080;-72
2024/02/25 05:52:04;;;;;;;0.82;0.30;;;;;;;0.76;59.79;100065.03;4999178;28;20060;-72
2024/02/25 05:54:30;;;;;;;1.85;0.50;;;;;;;1.01;58.95;100063.00;4991746;28;20085;-71
2024/02/25 05:56:55;;;;;;;1.42;0.63;;;;;;;1.09;59.21;100061.19;4976873;28;20390;-68
2024/02/25 05:59:20;;;;;;;1.58;0.30;;;;;;;1.17;59.09;100052.50;4959465;28;20388;-69
2024/02/25 06:01:49;;;;;;;0.80;0.30;;;;;;;1.24;58.55;100046.41;4990600;28;20507;-69
2024/02/25 06:04:16;;;;;;;2.97;0.40;;;;;;;1.19;58.71;100050.75;4995794;28;20131;-68
2024/02/25 06:06:48;;;;;;;1.00;0.40;;;;;;;1.07;59.22;100047.47;4974456;28;20084;-68
2024/02/25 06:09:14;;;;;;;1.58;0.30;;;;;;;1.28;59.00;100050.63;4951593;28;20042;-73
2024/02/25 06:11:39;;;;;;;3.58;0.52;;;;;;;1.41;58.78;100048.75;4914493;28;20392;-69
2024/02/25 06:14:04;;;;;;;1.15;0.57;;;;;;;1.39;59.08;100043.56;4934379;28;20994;-70
2024/02/25 06:16:32;;;;;;;1.48;0.52;;;;;;;1.42;58.77;100053.88;4926525;28;20057;-68
2024/02/25 06:19:01;;;;;;;1.95;0.35;;;;;;;1.38;58.70;100057.34;4892668;28;20561;-67
2024/02/25 06:21:27;;;;;;;2.47;0.50;;;;;;;1.52;58.35;100050.28;4967392;28;20084;-72
2024/02/25 06:23:52;;;;;;;0.85;0.63;;;;;;;1.38;58.90;100052.19;4970809;28;21029;-67
2024/02/25 06:26:18;;;;;;;2.60;0.65;;;;;;;1.46;58.94;100050.41;4980125;28;20499;-73
2024/02/25 06:28:44;;;;;;;1.13;0.47;;;;;;;1.49;58.86;100050.34;4991676;28;20546;-76
2024/02/25 06:31:10;;;;;;;1.42;0.50;;;;;;;1.44;59.13;100053.84;4980540;28;20030;-76
2024/02/25 06:33:35;;;;;;;2.42;0.50;;;;;;;1.26;59.55;100052.34;4988378;28;20045;-77
2024/02/25 06:36:01;;;;;;;1.90;0.50;;;;;;;1.21;59.79;100055.00;4998087;28;20410;-76
2024/02/25 06:38:27;;;;;;;3.92;0.68;;;;;;;1.38;59.27;100051.34;4980669;28;20037;-76
2024/02/25 06:40:53;;;;;;;2.65;0.50;;;;;;;1.41;59.35;100046.16;4962054;28;20068;-70
2024/02/25 06:43:18;;;;;;;1.35;0.70;;;;;;;1.14;59.89;100048.25;4967181;28;20476;-73
2024/02/25 06:45:45;;;;;;;2.28;0.90;;;;;;;1.44;59.21;100052.13;4985450;28;20037;-72
2024/02/25 06:48:10;;;;;;;2.17;0.52;;;;;;;1.37;59.66;100055.63;4981971;28;20033;-73
2024/02/25 06:50:36;;;;;;;2.17;0.55;;;;;;;1.37;59.41;100060.78;4975888;28;20530;-73
2024/02/25 06:53:03;;;;;;;3.10;0.88;;;;;;;1.52;59.21;100052.84;4948955;28;21460;-73
2024/02/25 06:55:29;;;;;;;1.40;0.60;;;;;;;1.65;59.01;100044.94;4988534;28;20034;-72
2024/02/25 06:57:55;;;;;;;1.02;0.68;;;;;;;1.60;59.22;100044.16;4970831;28;20349;-74
2024/02/25 07:00:20;;;;;;;2.85;0.95;;;;;;;1.57;58.93;100057.09;4998932;28;20034;-69
2024/02/25 07:02:46;;;;;;;3.05;0.60;;;;;;;1.49;59.29;100060.63;4966578;28;20040;-68
2024/02/25 07:05:12;;;;;;;1.95;0.80;;;;;;;1.45;59.88;100061.56;4997232;28;20029;-68
2024/02/25 07:07:38;;;;;;;3.97;0.70;;;;;;;1.56;59.62;100060.53;4963781;28;20056;-71
2024/02/25 07:10:05;;;;;;;1.67;0.50;;;;;;;1.79;59.28;100068.75;4972715;28;20022;-74
2024/02/25 07:12:31;;;;;;;1.00;0.60;;;;;;;1.83;59.21;100062.66;4976886;28;20550;-76
2024/02/25 07:14:56;;;;;;;2.25;0.88;;;;;;;1.79;58.88;100060.16;4983401;28;20500;-73
2024/02/25 07:17:22;;;;;;;2.70;0.82;;;;;;;1.91;58.98;100053.09;4985952;28;20037;-72
2024/02/25 07:19:48;;;;;;;1.67;0.70;;;;;;;1.96;59.10;100067.63;4943397;28;20038;-75
2024/02/25 07:22:14;;;;;;;4.63;0.55;;;;;;;1.83;59.30;100064.41;4963257;28;20385;-75
2024/02/25 07:24:42;;;;;;;1.63;0.55;;;;;;;1.81;59.71;100061.84;4989821;28;20044;-73
2024/02/25 07:27:08;;;;;;;1.73;0.88;;;;;;;1.94;59.23;100062.50;4987173;28;20038;-76
2024/02/25 07:29:34;;;;;;;0.98;0.30;;;;;;;1.51;60.69;100074.34;4975504;28;20550;-73
2024/02/25 07:31:59;;;;;;;1.13;0.45;;;;;;;1.76;60.20;100066.22;4936192;28;20038;-69
2024/02/25 07:34:25;;;;;;;1.42;1.00;;;;;;;2.06;59.09;100072.56;4995827;28;20044;-70
2024/02/25 07:36:51;;;;;;;2.35;0.75;;;;;;;1.94;59.46;100077.94;4987660;28;20608;-69
2024/02/25 07:39:19;;;;;;;3.80;0.80;;;;;;;2.18;58.89;100075.84;4993386;28;20041;-71
2024/02/25 07:41:44;;;;;;;2.42;0.68;;;;;;;2.03;59.14;100071.78;4965471;28;20034;-69
2024/02/25 07:44:11;;;;;;;2.75;1.15;;;;;;;1.94;59.21;100067.63;4982341;28;20582;-69
2024/02/25 07:46:36;;;;;;;2.00;0.40;;;;;;;2.09;58.94;100067.38;4978138;28;20084;-74
2024/02/25 07:49:02;;;;;;;1.08;0.60;;;;;;;2.02;59.48;100062.34;4990862;28;20457;-73
2024/02/25 07:51:38;;;;;;;1.38;0.63;;;;;;;2.10;59.60;100068.22;4996202;28;20037;-73
2024/02/25 07:54:06;;;;;;;1.55;0.68;;;;;;;2.08;59.68;100067.41;4956987;28;20049;-77
2024/02/25 07:56:32;;;;;;;3.95;1.20;;;;;;;2.13;59.26;100068.16;4989388;28;20662;-69
2024/02/25 07:58:57;;;;;;;3.42;0.80;;;;;;;2.16;59.17;100062.97;4983009;28;20052;-70
2024/02/25 08:01:23;;;;;;;4.50;0.70;;;;;;;1.76;60.09;100073.13;4995648;28;20474;-73
2024/02/25 08:03:49;;;;;;;4.50;1.20;;;;;;;1.81;60.70;100072.16;4981294;28;20639;-73
2024/02/25 08:06:24;;;;;;;2.40;0.95;;;;;;;2.15;59.77;100071.56;4992456;28;20045;-70
2024/02/25 08:08:52;;;;;;;2.70;0.57;;;;;;;2.02;60.05;100082.97;4986453;28;20048;-70
2024/02/25 08:11:20;;;;;;;2.17;0.60;;;;;;;1.79;60.81;100076.47;4984316;28;20057;-70
2024/02/25 08:13:46;;;;;;;1.45;0.57;;;;;;;2.17;59.67;100090.44;4987771;28;20073;-73
2024/02/25 08:16:11;;;;;;;1.25;0.77;;;;;;;2.09;59.93;100084.59;4982801;28;20549;-74
2024/02/25 08:18:37;;;;;;;0.80;0.50;;;;;;;1.71;60.75;100086.06;4995096;28;20045;-74
2024/02/25 08:21:03;;;;;;;1.98;0.70;;;;;;;1.77;60.93;100085.94;4991336;28;20846;-71
2024/02/25 08:23:28;;;;;;;1.30;0.55;;;;;;;1.94;60.71;100077.94;4998945;28;20038;-75
2024/02/25 08:25:54;;;;;;;1.50;0.70;;;;;;;2.06;59.93;100079.47;4973025;28;20033;-75
2024/02/25 08:28:20;;;;;;;2.22;0.95;;;;;;;2.08;59.94;100082.88;4986528;28;20033;-73
2024/02/25 08:30:47;;;;;;;3.03;1.42;;;;;;;2.12;60.10;100081.94;4925956;28;20061;-76
2024/02/25 08:33:15;;;;;;;1.30;0.43;;;;;;;1.71;60.89;100080.91;4933488;28;20052;-74
2024/02/25 08:35:41;;;;;;;4.32;1.10;;;;;;;2.04;60.32;100088.94;4920804;28;20455;-76
2024/02/25 08:38:07;;;;;;;1.60;0.52;;;;;;;2.18;60.03;100081.84;4913550;28;20046;-70
2024/02/25 08:40:33;;;;;;;1.10;0.45;;;;;;;1.98;61.05;100079.59;4917617;28;20025;-76
2024/02/25 08:42:59;;;;;;;3.78;0.88;;;;;;;1.79;61.56;100084.19;4948902;28;20063;-76
2024/02/25 08:45:25;;;;;;;2.47;0.70;;;;;;;2.31;60.33;100083.31;4997441;28;20037;-67
2024/02/25 08:47:50;;;;;;;1.10;0.47;;;;;;;2.21;61.13;100086.94;4979678;28;20048;-69
2024/02/25 08:50:16;;;;;;;1.13;0.57;;;;;;;2.35;60.69;100084.09;4991614;28;20017;-69
2024/02/25 08:52:42;;;;;;;2.53;0.85;;;;;;;1.88;61.95;100076.31;4991653;28;20029;-69
2024/02/25 08:55:08;;;;;;;3.70;1.08;;;;;;;2.33;60.73;100086.72;4984243;28;20048;-70
2024/02/25 08:57:34;;;;;;;1.38;0.75;;;;;;;2.67;60.07;100086.06;4994095;28;20160;-70
2024/02/25 08:59:59;;;;;;;5.22;0.90;;;;;;;2.48;59.98;100084.72;4932762;28;20045;-69
2024/02/25 09:02:25;;;;;;;2.13;0.88;;;;;;;2.49;60.23;100078.69;4960490;28;20061;-70
2024/02/25 09:04:51;;;;;;;5.07;0.98;;;;;;;2.71;60.07;100082.56;4966915;28;20044;-70
2024/02/25 09:07:17;;;;;;;2.40;0.63;;;;;;;2.17;60.78;100093.00;4992399;28;21182;-70
2024/02/25 09:09:43;;;;;;;2.53;1.50;;;;;;;2.79;59.61;100079.81;4931161;28;20059;-69
2024/02/25 09:12:13;;;;;;;2.58;0.85;;;;;;;2.63;60.17;100094.75;4984083;28;20048;-69
2024/02/25 09:14:42;;;;;;;4.30;1.60;;;;;;;2.40;61.10;100082.31;4945430;28;20139;-69
2024/02/25 09:17:07;;;;;;;1.70;1.08;;;;;;;2.52;60.77;100086.38;4988143;28;20041;-69
2024/02/25 09:19:33;;;;;;;3.38;1.02;;;;;;;1.81;62.27;100086.75;4992383;28;20069;-69
2024/02/25 09:21:59;;;;;;;2.55;1.17;;;;;;;2.55;60.24;100086.28;4964153;28;21173;-69
2024/02/25 09:24:28;;;;;;;2.28;1.05;;;;;;;2.44;60.77;100088.22;4973145;28;20068;-69
2024/02/25 09:26:53;;;;;;;5.60;1.85;;;;;;;2.70;60.66;100080.84;4952455;28;20033;-69
2024/02/25 09:29:35;;;;;;;3.10;1.63;;;;;;;2.52;61.23;100086.38;4993736;28;20071;-69
2024/02/25 09:32:01;;;;;;;3.17;1.58;;;;;;;2.61;60.80;100085.34;4982547;28;21236;-69
2024/02/25 09:34:26;;;;;;;2.08;1.23;;;;;;;3.16;59.87;100085.06;4994314;28;20053;-69
2024/02/25 09:36:52;;;;;;;2.03;1.23;;;;;;;2.65;60.35;100090.41;4982078;28;20025;-69
2024/02/25 09:39:18;;;;;;;2.42;1.65;;;;;;;2.48;61.27;100084.72;4975977;28;20033;-69
2024/02/25 09:41:46;;;;;;;2.78;1.67;;;;;;;2.83;60.69;100083.19;4992501;28;20091;-70
2024/02/25 09:44:25;;;;;;;3.15;2.08;;;;;;;2.38;61.77;100083.19;4970484;28;20045;-70
2024/02/25 09:46:53;;;;;;;5.38;2.33;;;;;;;2.68;60.90;100086.91;4977478;28;20164;-69
2024/02/25 09:49:19;;;;;;;3.85;1.83;;;;;;;2.60;60.97;100083.63;4965602;28;20060;-69
2024/02/25 09:51:48;;;;;;;2.38;2.05;;;;;;;2.97;59.81;100089.75;4988821;28;20502;-69
2024/02/25 09:54:15;;;;;;;3.30;1.77;;;;;;;2.09;61.57;100097.47;4970089;28;20045;-70
2024/02/25 09:56:42;;;;;;;3.42;1.85;;;;;;;2.45;61.23;100079.63;4988805;28;20041;-70
2024/02/25 09:59:08;;;;;;;3.67;1.75;;;;;;;2.86;60.19;100085.69;4955210;28;23033;-69
2024/02/25 10:01:34;;;;;;;2.80;1.52;;;;;;;2.83;60.12;100089.19;4967286;28;20253;-68
2024/02/25 10:03:59;;;;;;;3.15;1.70;;;;;;;2.50;61.02;100094.13;4942732;28;20668;-68
2024/02/25 10:06:25;;;;;;;2.30;1.80;;;;;;;2.68;60.93;100086.91;4934771;28;20169;-70
2024/02/25 10:08:52;;;;;;;4.32;2.53;;;;;;;2.92;60.37;100096.75;4935901;28;20033;-70
2024/02/25 10:11:18;;;;;;;3.78;2.05;;;;;;;2.72;60.80;100102.31;4970923;28;20095;-70
2024/02/25 10:13:48;;;;;;;2.63;1.45;;;;;;;2.89;59.89;100094.22;4951951;28;20042;-70
2024/02/25 10:16:18;;;;;;;2.20;1.45;;;;;;;3.14;59.70;100091.97;4942372;28;20253;-70
2024/02/25 10:18:44;;;;;;;2.75;1.60;;;;;;;2.93;59.84;100098.44;4947799;28;20049;-70
2024/02/25 10:21:13;;;;;;;2.65;2.05;;;;;;;2.62;60.89;100093.03;4936619;28;20303;-70
2024/02/25 10:23:39;;;;;;;2.55;1.73;;;;;;;2.41;62.22;100103.78;4919867;28;21757;-70
2024/02/25 10:26:15;;;;;;;2.92;2.00;;;;;;;3.07;60.40;100098.16;4979568;28;20522;-68
2024/02/25 10:28:41;;;;;;;2.70;1.95;;;;;;;3.11;60.18;100097.22;4974419;28;20077;-70
2024/02/25 10:31:09;;;;;;;2.38;1.63;;;;;;;3.49;59.23;100098.13;4964767;28;20357;-68
2024/02/25 10:33:35;;;;;;;4.22;2.45;;;;;;;3.43;59.27;100098.28;4991729;28;20127;-70
2024/02/25 10:36:19;;;;;;;2.63;2.22;;;;;;;3.30;59.39;100096.84;4961551;28;20660;-68
2024/02/25 10:38:46;;;;;;;4.65;1.98;;;;;;;2.99;60.61;100102.63;4993343;28;20539;-70
2024/02/25 10:41:13;;;;;;;2.75;2.20;;;;;;;3.32;59.79;100097.66;4980839;28;20694;-70
2024/02/25 10:43:39;;;;;;;3.40;2.97;;;;;;;3.09;59.81;100103.28;4973969;28;20048;-70
2024/02/25 10:46:17;;;;;;;3.35;2.70;;;;;;;3.43;60.20;100108.59;4962835;28;20045;-70
2024/02/25 10:48:43;;;;;;;3.17;1.90;;;;;;;3.81;59.00;100104.28;4993866;28;20441;-68
2024/02/25 10:51:10;;;;;;;2.50;2.30;;;;;;;3.24;59.71;100107.25;4980155;28;20132;-68
2024/02/25 10:53:38;;;;;;;3.88;2.08;;;;;;;3.09;60.43;100109.31;4993126;28;20038;-68
2024/02/25 10:56:05;;;;;;;3.03;2.38;;;;;;;3.09;59.80;100106.72;4964557;28;20113;-70
2024/02/25 10:58:32;;;;;;;4.95;3.47;;;;;;;3.40;59.89;100103.47;4972829;28;20033;-70
2024/02/25 11:00:58;;;;;;;3.67;2.50;;;;;;;3.10;60.65;100111.00;4984543;28;20064;-68
2024/02/25 11:03:24;;;;;;;5.47;3.42;;;;;;;3.16;60.45;100108.28;4993224;28;20088;-70
2024/02/25 11:05:50;;;;;;;5.22;3.25;;;;;;;2.81;61.41;100105.59;4981640;28;20037;-71
2024/02/25 11:08:32;;;;;;;10.18;4.05;;;;;;;2.98;61.23;100101.78;4968018;28;20408;-70
2024/02/25 11:11:01;;;;;;;5.53;3.90;;;;;;;3.63;59.45;100104.69;4967544;28;20051;-68
2024/02/25 11:13:26;;;;;;;6.10;3.13;;;;;;;4.22;58.50;100110.13;4978667;28;20041;-68
2024/02/25 11:15:56;;;;;;;4.20;3.35;;;;;;;4.23;58.07;100117.03;4996838;28;20120;-70
2024/02/25 11:18:29;;;;;;;4.97;3.35;;;;;;;4.07;58.05;100113.94;4977874;28;20052;-69
2024/02/25 11:21:10;;;;;;;5.13;3.67;;;;;;;4.15;57.80;100113.78;4974705;28;20087;-69
2024/02/25 11:23:47;;;;;;;2.97;2.47;;;;;;;3.92;58.65;100117.78;4997418;28;20565;-69
2024/02/25 11:26:35;;;;;;;4.65;3.00;;;;;;;3.67;58.38;100106.31;4988352;28;20077;-69
2024/02/25 11:29:17;;;;;;;3.60;2.88;;;;;;;3.90;58.27;100111.81;4966473;28;20112;-68
2024/02/25 11:31:50;;;;;;;;;;;;;;;3.24;59.50;100112.44;4973334;28;20173;-68